x

Shelikof Strait, Ak (46077) Wave Buoy

8:50pm - Sat 18th Nov 2017 All times are AKST. -9 hours from GMT.

  • Sig Wave height 1.6ft
  • Swell Direction
  • Peak Period 5s
  • Average Period 4s
  • Wind
    9mph, 11mph gusts
  • Sea Temp 44°f
  • Air Temp 35°f
  • Sea Pressure 1008.2mb
  • Shelikof  Strait, Ak
  • Shelikof  Strait, Ak

More Historic Weather Station data

Upgrade to MSW Pro to gain access to the past 30 days of data for over 8000 Wavebouys and Weather Stations around the globe.

Join

Comparision Forecast

View Surf forecast
   
Sat 11/18 8:50pm 1.6ft 5s 4s 9 11 mph 1008.2mb 44f 35f
7:50pm 1.6ft 5s 4s 4 9 mph 1009.6mb 43f 37f
6:50pm 2ft 6s 4s 4 9 mph 1010.5mb 44f 37f
5:50pm 2ft 6s 4s 4 7 mph 1011.4mb 44f 37f
4:50pm 2ft 6s 4s 7 9 mph 1011.8mb 44f 37f
3:50pm 2.5ft 5s 4s 9 11 mph 1012.3mb 44f 37f
2:50pm 2.5ft 5s 4s 11 13 mph 1013.1mb 44f 37f
1:50pm 2.5ft 6s 4s 9 11 mph 1013.4mb 44f 37f
12:50pm 3.5ft 6s 4s 9 13 mph 1014mb 44f 38f
11:50am 3.5ft 6s 4s 13 16 mph 1014.4mb 44f 37f
10:50am 3.5ft 6s 4s 16 20 mph 1014.6mb 44f 38f
9:50am 3.5ft 6s 4s 18 22 mph 1014.7mb 44f 37f
8:50am 3.5ft 6s 4s 16 18 mph 1014mb 44f 39f
7:50am 3.5ft 5s 4s 16 20 mph 1014.2mb 44f 38f
6:50am 3ft 5s 4s 16 18 mph 1013.8mb 44f 39f
5:50am 2.5ft 6s 4s 13 16 mph 1014mb 44f 39f
4:50am 3.5ft 6s 4s 11 11 mph 1013.7mb 44f 40f
2:50am 3.5ft 5s 4s 9 9 mph 1013.8mb 44f 42f
1:50am 4.5ft 5s 4s 13 16 mph 1013.4mb 44f 42f
12:50am 3.5ft 5s 4s 20 22 mph 1013mb 44f 42f
Fri 11/17 11:50pm 3.5ft 5s 4s 13 16 mph 1013.3mb 44f 42f
10:50pm 3.5ft 6s 4s 7 9 mph 1013.7mb 44f 42f
9:50pm 4ft 5s 4s 7 11 mph 1013.4mb 44f 41f
8:50pm 4.5ft 6s 4s 2 4 mph 1013.6mb 44f 40f
7:50pm 4.5ft 5s 5s 9 13 mph 1013.2mb 44f 40f
6:50pm 5ft 5s 4s 18 22 mph 1012.4mb 44f 39f
5:50pm 6ft 5s 5s 22 29 mph 1011.1mb 44f 40f
4:50pm 5ft 5s 5s 20 27 mph 1010.5mb 44f 40f
3:50pm 4.5ft 5s 4s 18 27 mph 1009.9mb 44f 40f
2:50pm 4.5ft 6s 4s 22 27 mph 1009.4mb 44f 40f
1:50pm 5ft 5s 5s 25 29 mph 1009mb 44f 40f
12:50pm 3.5ft 6s 4s 16 20 mph 1009.2mb 44f 40f
11:50am 3.5ft 6s 4s 18 25 mph 1008.6mb 44f 40f
10:50am 3.5ft 6s 4s 20 25 mph 1008.4mb 44f 40f
9:50am 4ft 6s 5s 20 25 mph 1008.4mb 44f 39f
8:50am 4.5ft 7s 5s 22 27 mph 1007.8mb 44f 39f
7:50am 5ft 6s 5s 27 31 mph 1007.2mb 44f 39f
6:50am 4.5ft 7s 5s 27 36 mph 1006.8mb 44f 39f
5:50am 5.5ft 7s 5s 16 20 mph 1007.1mb 45f 40f
4:50am 5ft 6s 5s 16 20 mph 1006.2mb 44f 41f
3:50am 5ft 6s 5s 20 22 mph 1005.8mb 44f 42f
2:50am 4.5ft 6s 5s 20 25 mph 1005.2mb 44f 44f
1:50am 5.5ft 7s 5s 13 16 mph 1004.9mb 44f 44f
12:50am 8ft 7s 6s 20 25 mph 1004.3mb 44f 44f
Thu 11/16 11:50pm 8.5ft 8s 6s 20 25 mph 1004mb 45f 44f
10:50pm 7ft 8s 6s 25 29 mph 1003.4mb 45f 42f
9:50pm 8ft 7s 6s 25 29 mph 1003.5mb 45f 42f
8:50pm 9.5ft 8s 6s 27 34 mph 1003.5mb 45f 41f
7:50pm 8ft 8s 6s 31 36 mph 1003.4mb 45f 42f
6:50pm 8.5ft 7s 6s 29 40 mph 1003.3mb 45f 41f
5:50pm 7ft 7s 6s 40 49 mph 1002.1mb 45f 41f
4:50pm 7ft 7s 6s 36 43 mph 1003.5mb 45f 41f
3:50pm 6.5ft 6s 5s 27 31 mph 1006mb 45f 41f
2:50pm 6ft 6s 5s 29 36 mph 1006.7mb 44f 42f
1:50pm 5ft 6s 5s 29 36 mph 1007.5mb 44f 41f
12:50pm 4.5ft 6s 5s 22 29 mph 1009.3mb 44f 41f
11:50am 4ft 6s 5s 22 27 mph 1009.3mb 44f 42f
10:50am 4.5ft 6s 5s 20 25 mph 1010.5mb 45f 42f
9:50am 4ft 7s 5s 27 29 mph 1010.1mb 44f 43f
8:50am 3.5ft 6s 5s 4 7 mph 1011mb 44f 40f
7:50am 3.5ft 5s 5s 4 7 mph 1010.5mb 44f 40f
6:50am 2.5ft 6s 5s 7 9 mph 1009.8mb 44f 40f
5:50am 2.5ft 6s 5s 11 18 mph 1008.9mb 45f 40f
4:50am 2.5ft 7s 5s 7 9 mph 1008.9mb 45f 40f
3:50am 2ft 8s 5s 11 13 mph 1009mb 45f 40f
2:50am 2ft 8s 4s 9 13 mph 1009.1mb 45f 40f
1:50am 1.6ft 4s 4s 13 16 mph 1009.1mb 45f 40f
12:50am 1.6ft 6s 4s 11 16 mph 1009.2mb 44f 40f
Wed 11/15 11:50pm 1.3ft 6s 5s 9 11 mph 1009.7mb 45f 39f
10:50pm 2ft 6s 5s 4 4 mph 1009.9mb 44f 39f
9:50pm 1.6ft 6s 5s 2 2 mph 1009.9mb 44f 39f
8:50pm 1.6ft 6s 5s  -  2 mph 1010.4mb 45f 39f
7:50pm 1.6ft 6s 5s 2 4 mph 1010.7mb 45f 39f
6:50pm 1.6ft 6s 4s 4 7 mph 1010.8mb 44f 39f
5:50pm 1.6ft 6s 5s 9 11 mph 1010.8mb 44f 39f
4:50pm 1.6ft 6s 5s 9 11 mph 1011.2mb 44f 39f
3:50pm 1.3ft 6s 4s 9 11 mph 1011.7mb 44f 39f
2:50pm 1.6ft 5s 4s 11 13 mph 1011.9mb 44f 38f
1:50pm 1.6ft 6s 5s 9 13 mph 1012.8mb 44f 38f
12:50pm 1.6ft 6s 4s 9 11 mph 1013.9mb 44f 38f
11:50am 1.6ft 6s 5s 11 13 mph 1014.2mb 44f 38f
10:50am 1.3ft 6s 4s 13 16 mph 1014.8mb 44f 38f
9:50am 1.6ft 6s 4s 11 13 mph 1015.9mb 44f 38f
8:50am 1.6ft 7s 4s 11 13 mph 1016.6mb 44f 38f
7:50am 1.3ft 7s 4s 11 16 mph 1016.7mb 44f 38f